sensor_id;sensor_type;location;lat;lon;timestamp;P1;durP1;ratioP1;P2;durP2;ratioP2
21297;SDS011;10808;48.010;11.326;2023-11-19T00:00:42;1.90;;;1.52;;
21297;SDS011;10808;48.010;11.326;2023-11-19T00:03:09;2.38;;;1.60;;
21297;SDS011;10808;48.010;11.326;2023-11-19T00:05:51;2.70;;;1.50;;
21297;SDS011;10808;48.010;11.326;2023-11-19T00:11:05;1.77;;;1.50;;
21297;SDS011;10808;48.010;11.326;2023-11-19T00:13:31;2.40;;;1.70;;
21297;SDS011;10808;48.010;11.326;2023-11-19T00:15:57;2.05;;;1.60;;
21297;SDS011;10808;48.010;11.326;2023-11-19T00:18:23;4.65;;;3.35;;
21297;SDS011;10808;48.010;11.326;2023-11-19T00:20:49;4.65;;;3.17;;
21297;SDS011;10808;48.010;11.326;2023-11-19T00:23:15;3.53;;;3.20;;
21297;SDS011;10808;48.010;11.326;2023-11-19T00:25:41;3.75;;;2.85;;
21297;SDS011;10808;48.010;11.326;2023-11-19T00:28:07;3.08;;;2.60;;
21297;SDS011;10808;48.010;11.326;2023-11-19T00:30:33;3.58;;;2.40;;
21297;SDS011;10808;48.010;11.326;2023-11-19T00:32:59;3.45;;;2.70;;
21297;SDS011;10808;48.010;11.326;2023-11-19T00:35:25;2.70;;;2.40;;
21297;SDS011;10808;48.010;11.326;2023-11-19T00:38:09;2.63;;;2.40;;
21297;SDS011;10808;48.010;11.326;2023-11-19T00:40:47;2.35;;;2.00;;
21297;SDS011;10808;48.010;11.326;2023-11-19T00:43:13;2.42;;;2.00;;
21297;SDS011;10808;48.010;11.326;2023-11-19T00:45:48;4.88;;;2.17;;
21297;SDS011;10808;48.010;11.326;2023-11-19T00:48:16;2.35;;;2.05;;
21297;SDS011;10808;48.010;11.326;2023-11-19T00:50:43;2.20;;;2.00;;
21297;SDS011;10808;48.010;11.326;2023-11-19T00:53:10;2.30;;;2.00;;
21297;SDS011;10808;48.010;11.326;2023-11-19T00:55:36;3.08;;;2.10;;
21297;SDS011;10808;48.010;11.326;2023-11-19T00:58:02;2.97;;;2.00;;
21297;SDS011;10808;48.010;11.326;2023-11-19T01:00:36;2.58;;;2.08;;
21297;SDS011;10808;48.010;11.326;2023-11-19T01:03:04;2.58;;;2.17;;
21297;SDS011;10808;48.010;11.326;2023-11-19T01:05:32;2.33;;;1.80;;
21297;SDS011;10808;48.010;11.326;2023-11-19T01:07:58;2.15;;;1.95;;
21297;SDS011;10808;48.010;11.326;2023-11-19T01:10:24;3.10;;;1.95;;
21297;SDS011;10808;48.010;11.326;2023-11-19T01:12:51;2.58;;;2.10;;
21297;SDS011;10808;48.010;11.326;2023-11-19T01:15:17;2.22;;;2.00;;
21297;SDS011;10808;48.010;11.326;2023-11-19T01:17:46;2.90;;;1.80;;
21297;SDS011;10808;48.010;11.326;2023-11-19T01:20:20;1.90;;;1.80;;
21297;SDS011;10808;48.010;11.326;2023-11-19T01:22:46;2.10;;;1.80;;
21297;SDS011;10808;48.010;11.326;2023-11-19T01:25:14;2.03;;;1.70;;
21297;SDS011;10808;48.010;11.326;2023-11-19T01:27:40;2.33;;;1.90;;
21297;SDS011;10808;48.010;11.326;2023-11-19T01:30:06;2.05;;;1.75;;
21297;SDS011;10808;48.010;11.326;2023-11-19T01:32:38;2.60;;;1.90;;
21297;SDS011;10808;48.010;11.326;2023-11-19T01:35:05;2.53;;;1.80;;
21297;SDS011;10808;48.010;11.326;2023-11-19T01:37:33;2.53;;;2.00;;
21297;SDS011;10808;48.010;11.326;2023-11-19T01:40:03;2.20;;;2.00;;
21297;SDS011;10808;48.010;11.326;2023-11-19T01:42:43;2.25;;;2.05;;
21297;SDS011;10808;48.010;11.326;2023-11-19T01:45:10;2.28;;;2.00;;
21297;SDS011;10808;48.010;11.326;2023-11-19T01:47:56;2.38;;;2.17;;
21297;SDS011;10808;48.010;11.326;2023-11-19T01:50:24;2.42;;;2.22;;
21297;SDS011;10808;48.010;11.326;2023-11-19T01:52:52;2.40;;;2.20;;
21297;SDS011;10808;48.010;11.326;2023-11-19T01:55:19;3.72;;;2.35;;
21297;SDS011;10808;48.010;11.326;2023-11-19T01:57:49;2.63;;;2.38;;
21297;SDS011;10808;48.010;11.326;2023-11-19T02:00:16;3.67;;;2.40;;
21297;SDS011;10808;48.010;11.326;2023-11-19T02:05:24;2.95;;;2.40;;
21297;SDS011;10808;48.010;11.326;2023-11-19T02:07:51;2.80;;;2.17;;
21297;SDS011;10808;48.010;11.326;2023-11-19T02:10:17;2.53;;;2.22;;
21297;SDS011;10808;48.010;11.326;2023-11-19T02:12:44;3.33;;;2.10;;
21297;SDS011;10808;48.010;11.326;2023-11-19T02:15:18;3.20;;;2.40;;
21297;SDS011;10808;48.010;11.326;2023-11-19T02:17:51;2.72;;;2.25;;
21297;SDS011;10808;48.010;11.326;2023-11-19T02:20:18;3.08;;;2.08;;
21297;SDS011;10808;48.010;11.326;2023-11-19T02:22:48;3.72;;;2.20;;
21297;SDS011;10808;48.010;11.326;2023-11-19T02:25:32;2.50;;;2.15;;
21297;SDS011;10808;48.010;11.326;2023-11-19T02:28:00;3.10;;;2.20;;
21297;SDS011;10808;48.010;11.326;2023-11-19T02:30:27;3.50;;;2.08;;
21297;SDS011;10808;48.010;11.326;2023-11-19T02:32:54;2.33;;;2.13;;
21297;SDS011;10808;48.010;11.326;2023-11-19T02:35:24;14.60;;;2.75;;
21297;SDS011;10808;48.010;11.326;2023-11-19T02:37:58;2.67;;;2.47;;
21297;SDS011;10808;48.010;11.326;2023-11-19T02:40:29;4.32;;;2.40;;
21297;SDS011;10808;48.010;11.326;2023-11-19T02:42:55;3.30;;;2.40;;
21297;SDS011;10808;48.010;11.326;2023-11-19T02:45:24;2.65;;;2.42;;
21297;SDS011;10808;48.010;11.326;2023-11-19T02:47:52;10.15;;;2.60;;
21297;SDS011;10808;48.010;11.326;2023-11-19T02:50:20;13.15;;;2.90;;
21297;SDS011;10808;48.010;11.326;2023-11-19T02:52:54;2.45;;;1.92;;
21297;SDS011;10808;48.010;11.326;2023-11-19T02:55:24;12.68;;;3.33;;
21297;SDS011;10808;48.010;11.326;2023-11-19T02:57:58;4.22;;;2.50;;
21297;SDS011;10808;48.010;11.326;2023-11-19T03:00:25;12.35;;;3.10;;
21297;SDS011;10808;48.010;11.326;2023-11-19T03:03:17;10.43;;;3.10;;
21297;SDS011;10808;48.010;11.326;2023-11-19T03:05:47;2.60;;;2.13;;
21297;SDS011;10808;48.010;11.326;2023-11-19T03:08:15;2.17;;;1.70;;
21297;SDS011;10808;48.010;11.326;2023-11-19T03:10:48;1.48;;;0.63;;
21297;SDS011;10808;48.010;11.326;2023-11-19T03:13:14;0.70;;;0.70;;
21297;SDS011;10808;48.010;11.326;2023-11-19T03:15:43;1.17;;;0.70;;
21297;SDS011;10808;48.010;11.326;2023-11-19T03:18:09;0.60;;;0.60;;
21297;SDS011;10808;48.010;11.326;2023-11-19T03:20:35;0.50;;;0.50;;
21297;SDS011;10808;48.010;11.326;2023-11-19T03:23:01;0.95;;;0.60;;
21297;SDS011;10808;48.010;11.326;2023-11-19T03:25:27;0.80;;;0.57;;
21297;SDS011;10808;48.010;11.326;2023-11-19T03:28:03;1.80;;;0.73;;
21297;SDS011;10808;48.010;11.326;2023-11-19T03:30:30;1.20;;;0.70;;
21297;SDS011;10808;48.010;11.326;2023-11-19T03:32:57;2.08;;;0.70;;
21297;SDS011;10808;48.010;11.326;2023-11-19T03:35:23;1.08;;;0.60;;
21297;SDS011;10808;48.010;11.326;2023-11-19T03:37:50;1.10;;;0.60;;
21297;SDS011;10808;48.010;11.326;2023-11-19T03:40:17;1.63;;;0.73;;
21297;SDS011;10808;48.010;11.326;2023-11-19T03:42:47;0.90;;;0.50;;
21297;SDS011;10808;48.010;11.326;2023-11-19T03:45:13;0.65;;;0.65;;
21297;SDS011;10808;48.010;11.326;2023-11-19T03:47:41;1.35;;;0.80;;
21297;SDS011;10808;48.010;11.326;2023-11-19T03:50:10;0.60;;;0.60;;
21297;SDS011;10808;48.010;11.326;2023-11-19T03:52:36;0.77;;;0.55;;
21297;SDS011;10808;48.010;11.326;2023-11-19T03:55:02;0.50;;;0.50;;
21297;SDS011;10808;48.010;11.326;2023-11-19T03:57:31;0.50;;;0.50;;
21297;SDS011;10808;48.010;11.326;2023-11-19T03:59:57;0.60;;;0.55;;
21297;SDS011;10808;48.010;11.326;2023-11-19T04:02:32;0.57;;;0.55;;
21297;SDS011;10808;48.010;11.326;2023-11-19T04:04:58;0.73;;;0.70;;
21297;SDS011;10808;48.010;11.326;2023-11-19T04:07:24;0.60;;;0.60;;
21297;SDS011;10808;48.010;11.326;2023-11-19T04:09:50;1.90;;;0.75;;
21297;SDS011;10808;48.010;11.326;2023-11-19T04:12:16;0.85;;;0.70;;
21297;SDS011;10808;48.010;11.326;2023-11-19T04:14:44;2.58;;;0.70;;
21297;SDS011;10808;48.010;11.326;2023-11-19T04:17:10;1.13;;;0.70;;
21297;SDS011;10808;48.010;11.326;2023-11-19T04:19:39;1.20;;;0.77;;
21297;SDS011;10808;48.010;11.326;2023-11-19T04:22:08;0.90;;;0.70;;
21297;SDS011;10808;48.010;11.326;2023-11-19T04:24:37;0.73;;;0.60;;
21297;SDS011;10808;48.010;11.326;2023-11-19T04:27:03;1.08;;;0.70;;
21297;SDS011;10808;48.010;11.326;2023-11-19T04:29:31;0.95;;;0.70;;
21297;SDS011;10808;48.010;11.326;2023-11-19T04:31:58;1.70;;;0.80;;
21297;SDS011;10808;48.010;11.326;2023-11-19T04:34:24;1.33;;;0.80;;
21297;SDS011;10808;48.010;11.326;2023-11-19T04:36:51;1.23;;;0.70;;
21297;SDS011;10808;48.010;11.326;2023-11-19T04:39:17;0.70;;;0.70;;
21297;SDS011;10808;48.010;11.326;2023-11-19T04:41:50;0.70;;;0.60;;
21297;SDS011;10808;48.010;11.326;2023-11-19T04:44:20;1.77;;;0.70;;
21297;SDS011;10808;48.010;11.326;2023-11-19T04:46:47;0.73;;;0.73;;
21297;SDS011;10808;48.010;11.326;2023-11-19T04:49:14;1.08;;;0.85;;
21297;SDS011;10808;48.010;11.326;2023-11-19T04:51:50;1.25;;;0.70;;
21297;SDS011;10808;48.010;11.326;2023-11-19T04:54:16;1.42;;;0.70;;
21297;SDS011;10808;48.010;11.326;2023-11-19T04:56:48;1.67;;;0.80;;
21297;SDS011;10808;48.010;11.326;2023-11-19T04:59:14;1.08;;;0.80;;
21297;SDS011;10808;48.010;11.326;2023-11-19T05:01:46;0.93;;;0.70;;
21297;SDS011;10808;48.010;11.326;2023-11-19T05:04:13;0.80;;;0.70;;
21297;SDS011;10808;48.010;11.326;2023-11-19T05:06:43;1.52;;;0.63;;
21297;SDS011;10808;48.010;11.326;2023-11-19T05:09:09;1.40;;;0.73;;
21297;SDS011;10808;48.010;11.326;2023-11-19T05:11:38;1.97;;;0.80;;
21297;SDS011;10808;48.010;11.326;2023-11-19T05:14:04;1.60;;;0.70;;
21297;SDS011;10808;48.010;11.326;2023-11-19T05:16:32;1.40;;;0.75;;
21297;SDS011;10808;48.010;11.326;2023-11-19T05:18:58;0.80;;;0.73;;
21297;SDS011;10808;48.010;11.326;2023-11-19T05:21:27;0.60;;;0.60;;
21297;SDS011;10808;48.010;11.326;2023-11-19T05:23:53;0.70;;;0.70;;
21297;SDS011;10808;48.010;11.326;2023-11-19T05:26:27;1.98;;;1.33;;
21297;SDS011;10808;48.010;11.326;2023-11-19T05:28:53;1.67;;;0.90;;
21297;SDS011;10808;48.010;11.326;2023-11-19T05:31:19;0.70;;;0.70;;
21297;SDS011;10808;48.010;11.326;2023-11-19T05:36:15;1.40;;;0.70;;
21297;SDS011;10808;48.010;11.326;2023-11-19T05:38:42;2.08;;;0.70;;
21297;SDS011;10808;48.010;11.326;2023-11-19T05:41:11;2.20;;;0.80;;
21297;SDS011;10808;48.010;11.326;2023-11-19T05:43:40;0.50;;;0.50;;
21297;SDS011;10808;48.010;11.326;2023-11-19T05:46:07;1.00;;;0.90;;
21297;SDS011;10808;48.010;11.326;2023-11-19T05:48:34;0.60;;;0.50;;
21297;SDS011;10808;48.010;11.326;2023-11-19T05:51:00;0.73;;;0.73;;
21297;SDS011;10808;48.010;11.326;2023-11-19T05:53:26;0.57;;;0.50;;
21297;SDS011;10808;48.010;11.326;2023-11-19T05:55:52;0.50;;;0.50;;
21297;SDS011;10808;48.010;11.326;2023-11-19T05:58:28;0.50;;;0.50;;
21297;SDS011;10808;48.010;11.326;2023-11-19T06:00:56;0.82;;;0.60;;
21297;SDS011;10808;48.010;11.326;2023-11-19T06:03:28;0.65;;;0.60;;
21297;SDS011;10808;48.010;11.326;2023-11-19T06:05:54;0.73;;;0.60;;
21297;SDS011;10808;48.010;11.326;2023-11-19T06:08:20;0.70;;;0.70;;
21297;SDS011;10808;48.010;11.326;2023-11-19T06:10:47;0.68;;;0.50;;
21297;SDS011;10808;48.010;11.326;2023-11-19T06:13:16;0.50;;;0.50;;
21297;SDS011;10808;48.010;11.326;2023-11-19T06:15:42;0.53;;;0.50;;
21297;SDS011;10808;48.010;11.326;2023-11-19T06:18:08;0.90;;;0.60;;
21297;SDS011;10808;48.010;11.326;2023-11-19T06:20:36;1.58;;;0.63;;
21297;SDS011;10808;48.010;11.326;2023-11-19T06:25:32;0.50;;;0.50;;
21297;SDS011;10808;48.010;11.326;2023-11-19T06:27:58;0.60;;;0.60;;
21297;SDS011;10808;48.010;11.326;2023-11-19T06:30:24;1.60;;;1.35;;
21297;SDS011;10808;48.010;11.326;2023-11-19T06:32:53;0.77;;;0.52;;
21297;SDS011;10808;48.010;11.326;2023-11-19T06:35:19;0.93;;;0.70;;
21297;SDS011;10808;48.010;11.326;2023-11-19T06:37:45;0.55;;;0.55;;
21297;SDS011;10808;48.010;11.326;2023-11-19T06:40:11;0.60;;;0.60;;
21297;SDS011;10808;48.010;11.326;2023-11-19T06:42:38;0.50;;;0.50;;
21297;SDS011;10808;48.010;11.326;2023-11-19T06:45:04;0.70;;;0.60;;
21297;SDS011;10808;48.010;11.326;2023-11-19T06:47:32;0.50;;;0.50;;
21297;SDS011;10808;48.010;11.326;2023-11-19T06:50:05;0.40;;;0.40;;
21297;SDS011;10808;48.010;11.326;2023-11-19T06:52:32;0.50;;;0.50;;
21297;SDS011;10808;48.010;11.326;2023-11-19T06:54:58;0.43;;;0.43;;
21297;SDS011;10808;48.010;11.326;2023-11-19T06:57:24;0.43;;;0.40;;
21297;SDS011;10808;48.010;11.326;2023-11-19T06:59:50;0.40;;;0.40;;
21297;SDS011;10808;48.010;11.326;2023-11-19T07:02:16;0.35;;;0.35;;
21297;SDS011;10808;48.010;11.326;2023-11-19T07:04:42;0.47;;;0.47;;
21297;SDS011;10808;48.010;11.326;2023-11-19T07:07:08;0.50;;;0.50;;
21297;SDS011;10808;48.010;11.326;2023-11-19T07:09:35;0.53;;;0.50;;
21297;SDS011;10808;48.010;11.326;2023-11-19T07:12:01;0.60;;;0.60;;
21297;SDS011;10808;48.010;11.326;2023-11-19T07:14:30;0.63;;;0.60;;
21297;SDS011;10808;48.010;11.326;2023-11-19T07:16:56;1.20;;;1.10;;
21297;SDS011;10808;48.010;11.326;2023-11-19T07:19:28;3.35;;;3.05;;
21297;SDS011;10808;48.010;11.326;2023-11-19T07:21:54;2.13;;;0.82;;
21297;SDS011;10808;48.010;11.326;2023-11-19T07:24:20;0.83;;;0.83;;
21297;SDS011;10808;48.010;11.326;2023-11-19T07:26:47;1.52;;;0.90;;
21297;SDS011;10808;48.010;11.326;2023-11-19T07:29:14;1.10;;;1.00;;
21297;SDS011;10808;48.010;11.326;2023-11-19T07:31:43;1.00;;;0.90;;
21297;SDS011;10808;48.010;11.326;2023-11-19T07:34:10;0.90;;;0.73;;
21297;SDS011;10808;48.010;11.326;2023-11-19T07:36:37;1.25;;;1.10;;
21297;SDS011;10808;48.010;11.326;2023-11-19T07:39:03;0.77;;;0.77;;
21297;SDS011;10808;48.010;11.326;2023-11-19T07:41:33;1.27;;;1.10;;
21297;SDS011;10808;48.010;11.326;2023-11-19T07:44:00;1.15;;;1.05;;
21297;SDS011;10808;48.010;11.326;2023-11-19T07:46:26;0.60;;;0.60;;
21297;SDS011;10808;48.010;11.326;2023-11-19T07:48:52;0.60;;;0.60;;
21297;SDS011;10808;48.010;11.326;2023-11-19T07:51:18;1.67;;;1.20;;
21297;SDS011;10808;48.010;11.326;2023-11-19T07:53:44;7.45;;;5.15;;
21297;SDS011;10808;48.010;11.326;2023-11-19T07:56:10;1.92;;;1.58;;
21297;SDS011;10808;48.010;11.326;2023-11-19T07:58:37;1.27;;;1.00;;
21297;SDS011;10808;48.010;11.326;2023-11-19T08:01:03;1.20;;;1.10;;
21297;SDS011;10808;48.010;11.326;2023-11-19T08:03:29;1.55;;;0.80;;
21297;SDS011;10808;48.010;11.326;2023-11-19T08:05:57;0.70;;;0.70;;
21297;SDS011;10808;48.010;11.326;2023-11-19T08:08:24;0.60;;;0.60;;
21297;SDS011;10808;48.010;11.326;2023-11-19T08:10:50;0.50;;;0.50;;
21297;SDS011;10808;48.010;11.326;2023-11-19T08:13:17;0.80;;;0.60;;
21297;SDS011;10808;48.010;11.326;2023-11-19T08:15:44;0.70;;;0.70;;
21297;SDS011;10808;48.010;11.326;2023-11-19T08:18:10;1.02;;;0.80;;
21297;SDS011;10808;48.010;11.326;2023-11-19T08:20:36;1.40;;;1.15;;
21297;SDS011;10808;48.010;11.326;2023-11-19T08:23:02;0.70;;;0.70;;
21297;SDS011;10808;48.010;11.326;2023-11-19T08:25:31;1.10;;;1.00;;
21297;SDS011;10808;48.010;11.326;2023-11-19T08:28:02;0.98;;;0.80;;
21297;SDS011;10808;48.010;11.326;2023-11-19T08:30:29;0.60;;;0.60;;
21297;SDS011;10808;48.010;11.326;2023-11-19T08:32:55;0.60;;;0.60;;
21297;SDS011;10808;48.010;11.326;2023-11-19T08:35:21;0.70;;;0.70;;
21297;SDS011;10808;48.010;11.326;2023-11-19T08:37:49;1.00;;;0.90;;
21297;SDS011;10808;48.010;11.326;2023-11-19T08:40:15;1.73;;;1.20;;
21297;SDS011;10808;48.010;11.326;2023-11-19T08:42:41;1.00;;;0.90;;
21297;SDS011;10808;48.010;11.326;2023-11-19T08:45:07;0.60;;;0.60;;
21297;SDS011;10808;48.010;11.326;2023-11-19T08:47:37;0.65;;;0.65;;
21297;SDS011;10808;48.010;11.326;2023-11-19T08:50:03;2.03;;;0.85;;
21297;SDS011;10808;48.010;11.326;2023-11-19T08:52:30;0.70;;;0.70;;
21297;SDS011;10808;48.010;11.326;2023-11-19T08:54:56;1.88;;;0.90;;
21297;SDS011;10808;48.010;11.326;2023-11-19T08:57:22;0.88;;;0.80;;
21297;SDS011;10808;48.010;11.326;2023-11-19T08:59:48;10.17;;;5.57;;
21297;SDS011;10808;48.010;11.326;2023-11-19T09:02:14;9.02;;;5.45;;
21297;SDS011;10808;48.010;11.326;2023-11-19T09:04:40;7.65;;;5.05;;
21297;SDS011;10808;48.010;11.326;2023-11-19T09:07:06;4.65;;;3.35;;
21297;SDS011;10808;48.010;11.326;2023-11-19T09:09:35;0.93;;;0.85;;
21297;SDS011;10808;48.010;11.326;2023-11-19T09:12:02;1.13;;;0.80;;
21297;SDS011;10808;48.010;11.326;2023-11-19T09:14:31;1.90;;;0.90;;
21297;SDS011;10808;48.010;11.326;2023-11-19T09:16:57;0.80;;;0.80;;
21297;SDS011;10808;48.010;11.326;2023-11-19T09:19:24;1.23;;;1.00;;
21297;SDS011;10808;48.010;11.326;2023-11-19T09:21:52;1.05;;;0.80;;
21297;SDS011;10808;48.010;11.326;2023-11-19T09:24:20;1.35;;;1.23;;
21297;SDS011;10808;48.010;11.326;2023-11-19T09:26:46;2.75;;;1.40;;
21297;SDS011;10808;48.010;11.326;2023-11-19T09:29:12;1.88;;;1.52;;
21297;SDS011;10808;48.010;11.326;2023-11-19T09:31:40;2.70;;;1.90;;
21297;SDS011;10808;48.010;11.326;2023-11-19T09:34:06;2.55;;;1.95;;
21297;SDS011;10808;48.010;11.326;2023-11-19T09:36:32;3.63;;;2.40;;
21297;SDS011;10808;48.010;11.326;2023-11-19T09:38:58;2.80;;;2.00;;
21297;SDS011;10808;48.010;11.326;2023-11-19T09:41:26;2.15;;;1.55;;
21297;SDS011;10808;48.010;11.326;2023-11-19T09:43:53;1.38;;;1.20;;
21297;SDS011;10808;48.010;11.326;2023-11-19T09:46:19;2.03;;;1.45;;
21297;SDS011;10808;48.010;11.326;2023-11-19T09:48:49;1.50;;;0.85;;
21297;SDS011;10808;48.010;11.326;2023-11-19T09:51:21;0.80;;;0.80;;
21297;SDS011;10808;48.010;11.326;2023-11-19T09:53:50;1.38;;;1.00;;
21297;SDS011;10808;48.010;11.326;2023-11-19T09:56:16;0.65;;;0.65;;
21297;SDS011;10808;48.010;11.326;2023-11-19T09:58:43;1.10;;;0.98;;
21297;SDS011;10808;48.010;11.326;2023-11-19T10:01:09;1.35;;;1.00;;
21297;SDS011;10808;48.010;11.326;2023-11-19T10:03:39;0.52;;;0.52;;
21297;SDS011;10808;48.010;11.326;2023-11-19T10:06:06;1.23;;;0.70;;
21297;SDS011;10808;48.010;11.326;2023-11-19T10:08:33;1.35;;;0.80;;
21297;SDS011;10808;48.010;11.326;2023-11-19T10:11:02;0.50;;;0.50;;
21297;SDS011;10808;48.010;11.326;2023-11-19T10:13:28;1.60;;;0.90;;
21297;SDS011;10808;48.010;11.326;2023-11-19T10:15:55;0.80;;;0.80;;
21297;SDS011;10808;48.010;11.326;2023-11-19T10:18:26;0.77;;;0.77;;
21297;SDS011;10808;48.010;11.326;2023-11-19T10:20:52;1.90;;;0.80;;
21297;SDS011;10808;48.010;11.326;2023-11-19T10:23:19;0.70;;;0.70;;
21297;SDS011;10808;48.010;11.326;2023-11-19T10:25:45;1.90;;;1.30;;
21297;SDS011;10808;48.010;11.326;2023-11-19T10:28:11;1.70;;;1.40;;
21297;SDS011;10808;48.010;11.326;2023-11-19T10:30:37;2.70;;;2.03;;
21297;SDS011;10808;48.010;11.326;2023-11-19T10:33:05;1.90;;;1.30;;
21297;SDS011;10808;48.010;11.326;2023-11-19T10:38:22;2.60;;;1.98;;
21297;SDS011;10808;48.010;11.326;2023-11-19T10:40:49;2.85;;;2.00;;
21297;SDS011;10808;48.010;11.326;2023-11-19T10:43:19;2.42;;;1.63;;
21297;SDS011;10808;48.010;11.326;2023-11-19T10:45:47;3.03;;;1.40;;
21297;SDS011;10808;48.010;11.326;2023-11-19T10:48:13;1.77;;;1.20;;
21297;SDS011;10808;48.010;11.326;2023-11-19T10:50:40;1.60;;;1.10;;
21297;SDS011;10808;48.010;11.326;2023-11-19T10:53:08;1.42;;;1.30;;
21297;SDS011;10808;48.010;11.326;2023-11-19T10:55:36;2.80;;;1.90;;
21297;SDS011;10808;48.010;11.326;2023-11-19T10:58:06;2.77;;;1.83;;
21297;SDS011;10808;48.010;11.326;2023-11-19T11:00:42;1.70;;;1.17;;
21297;SDS011;10808;48.010;11.326;2023-11-19T11:03:18;3.78;;;2.35;;
21297;SDS011;10808;48.010;11.326;2023-11-19T11:05:46;3.83;;;2.45;;
21297;SDS011;10808;48.010;11.326;2023-11-19T11:08:13;0.80;;;0.80;;
21297;SDS011;10808;48.010;11.326;2023-11-19T11:10:40;0.80;;;0.80;;
21297;SDS011;10808;48.010;11.326;2023-11-19T11:13:09;2.60;;;1.52;;
21297;SDS011;10808;48.010;11.326;2023-11-19T11:15:38;3.47;;;2.10;;
21297;SDS011;10808;48.010;11.326;2023-11-19T11:18:08;2.35;;;1.30;;
21297;SDS011;10808;48.010;11.326;2023-11-19T11:20:34;3.75;;;1.55;;
21297;SDS011;10808;48.010;11.326;2023-11-19T11:25:42;4.05;;;2.60;;
21297;SDS011;10808;48.010;11.326;2023-11-19T11:34:04;1.70;;;1.42;;
21297;SDS011;10808;48.010;11.326;2023-11-19T11:39:35;1.98;;;1.40;;
21297;SDS011;10808;48.010;11.326;2023-11-19T11:47:25;1.42;;;0.90;;
21297;SDS011;10808;48.010;11.326;2023-11-19T11:50:12;2.45;;;1.20;;
21297;SDS011;10808;48.010;11.326;2023-11-19T11:53:13;1.30;;;1.08;;
21297;SDS011;10808;48.010;11.326;2023-11-19T11:58:17;1.13;;;0.90;;
21297;SDS011;10808;48.010;11.326;2023-11-19T12:00:44;1.33;;;1.00;;
21297;SDS011;10808;48.010;11.326;2023-11-19T12:03:13;1.58;;;1.10;;
21297;SDS011;10808;48.010;11.326;2023-11-19T12:05:42;2.25;;;1.30;;
21297;SDS011;10808;48.010;11.326;2023-11-19T12:08:10;1.98;;;1.20;;
21297;SDS011;10808;48.010;11.326;2023-11-19T12:10:48;1.65;;;0.90;;
21297;SDS011;10808;48.010;11.326;2023-11-19T12:13:19;2.08;;;0.90;;
21297;SDS011;10808;48.010;11.326;2023-11-19T12:18:29;2.45;;;1.20;;
21297;SDS011;10808;48.010;11.326;2023-11-19T12:20:59;1.15;;;0.90;;
21297;SDS011;10808;48.010;11.326;2023-11-19T12:23:29;1.70;;;1.00;;
21297;SDS011;10808;48.010;11.326;2023-11-19T12:25:58;1.17;;;1.00;;
21297;SDS011;10808;48.010;11.326;2023-11-19T12:28:24;1.63;;;1.20;;
21297;SDS011;10808;48.010;11.326;2023-11-19T12:30:53;2.83;;;1.02;;
21297;SDS011;10808;48.010;11.326;2023-11-19T12:33:19;1.05;;;0.93;;
21297;SDS011;10808;48.010;11.326;2023-11-19T12:35:46;2.30;;;1.33;;
21297;SDS011;10808;48.010;11.326;2023-11-19T12:38:22;2.13;;;1.30;;
21297;SDS011;10808;48.010;11.326;2023-11-19T12:41:05;1.15;;;1.00;;
21297;SDS011;10808;48.010;11.326;2023-11-19T12:43:32;2.60;;;1.00;;
21297;SDS011;10808;48.010;11.326;2023-11-19T12:46:00;2.40;;;1.20;;
21297;SDS011;10808;48.010;11.326;2023-11-19T12:48:26;2.40;;;0.90;;
21297;SDS011;10808;48.010;11.326;2023-11-19T12:50:56;1.20;;;0.73;;
21297;SDS011;10808;48.010;11.326;2023-11-19T12:53:25;1.00;;;0.90;;
21297;SDS011;10808;48.010;11.326;2023-11-19T12:55:53;1.15;;;1.00;;
21297;SDS011;10808;48.010;11.326;2023-11-19T13:01:40;0.70;;;0.70;;
21297;SDS011;10808;48.010;11.326;2023-11-19T13:03:47;0.90;;;0.77;;
21297;SDS011;10808;48.010;11.326;2023-11-19T13:06:17;0.70;;;0.70;;
21297;SDS011;10808;48.010;11.326;2023-11-19T13:08:47;0.80;;;0.80;;
21297;SDS011;10808;48.010;11.326;2023-11-19T13:11:19;0.70;;;0.70;;
21297;SDS011;10808;48.010;11.326;2023-11-19T13:14:00;1.00;;;0.63;;
21297;SDS011;10808;48.010;11.326;2023-11-19T13:16:35;0.70;;;0.63;;
21297;SDS011;10808;48.010;11.326;2023-11-19T13:19:02;0.70;;;0.65;;
21297;SDS011;10808;48.010;11.326;2023-11-19T13:21:28;0.88;;;0.65;;
21297;SDS011;10808;48.010;11.326;2023-11-19T13:23:57;0.60;;;0.60;;
21297;SDS011;10808;48.010;11.326;2023-11-19T13:26:23;0.77;;;0.60;;
21297;SDS011;10808;48.010;11.326;2023-11-19T13:28:49;0.80;;;0.70;;
21297;SDS011;10808;48.010;11.326;2023-11-19T13:31:15;0.90;;;0.82;;
21297;SDS011;10808;48.010;11.326;2023-11-19T13:33:42;1.37;;;0.90;;
21297;SDS011;10808;48.010;11.326;2023-11-19T13:36:08;1.00;;;0.90;;
21297;SDS011;10808;48.010;11.326;2023-11-19T13:38:34;1.13;;;0.90;;
21297;SDS011;10808;48.010;11.326;2023-11-19T13:41:06;2.10;;;0.90;;
21297;SDS011;10808;48.010;11.326;2023-11-19T13:43:32;1.10;;;0.80;;
21297;SDS011;10808;48.010;11.326;2023-11-19T13:45:58;0.80;;;0.60;;
21297;SDS011;10808;48.010;11.326;2023-11-19T13:48:24;0.90;;;0.85;;
21297;SDS011;10808;48.010;11.326;2023-11-19T13:50:55;1.45;;;1.00;;
21297;SDS011;10808;48.010;11.326;2023-11-19T13:53:21;2.42;;;1.60;;
21297;SDS011;10808;48.010;11.326;2023-11-19T13:55:49;1.90;;;1.50;;
21297;SDS011;10808;48.010;11.326;2023-11-19T13:58:16;1.90;;;0.90;;
21297;SDS011;10808;48.010;11.326;2023-11-19T14:00:42;1.13;;;0.90;;
21297;SDS011;10808;48.010;11.326;2023-11-19T14:03:09;1.33;;;0.90;;
21297;SDS011;10808;48.010;11.326;2023-11-19T14:05:38;1.00;;;0.80;;
21297;SDS011;10808;48.010;11.326;2023-11-19T14:08:06;1.45;;;1.13;;
21297;SDS011;10808;48.010;11.326;2023-11-19T14:10:38;1.23;;;0.90;;
21297;SDS011;10808;48.010;11.326;2023-11-19T14:13:11;0.60;;;0.60;;
21297;SDS011;10808;48.010;11.326;2023-11-19T14:15:38;0.65;;;0.65;;
21297;SDS011;10808;48.010;11.326;2023-11-19T14:18:05;1.67;;;1.10;;
21297;SDS011;10808;48.010;11.326;2023-11-19T14:20:31;1.30;;;1.00;;
21297;SDS011;10808;48.010;11.326;2023-11-19T14:22:58;1.60;;;1.10;;
21297;SDS011;10808;48.010;11.326;2023-11-19T14:25:24;1.20;;;0.70;;
21297;SDS011;10808;48.010;11.326;2023-11-19T14:27:50;1.02;;;0.80;;
21297;SDS011;10808;48.010;11.326;2023-11-19T14:30:17;0.63;;;0.63;;
21297;SDS011;10808;48.010;11.326;2023-11-19T14:32:43;0.90;;;0.60;;
21297;SDS011;10808;48.010;11.326;2023-11-19T14:35:11;0.60;;;0.60;;
21297;SDS011;10808;48.010;11.326;2023-11-19T14:37:37;1.02;;;0.70;;
21297;SDS011;10808;48.010;11.326;2023-11-19T14:40:03;0.75;;;0.75;;
21297;SDS011;10808;48.010;11.326;2023-11-19T14:42:31;4.57;;;3.57;;
21297;SDS011;10808;48.010;11.326;2023-11-19T14:44:57;1.13;;;1.02;;
21297;SDS011;10808;48.010;11.326;2023-11-19T14:47:24;0.93;;;0.80;;
21297;SDS011;10808;48.010;11.326;2023-11-19T14:49:50;1.98;;;0.90;;
21297;SDS011;10808;48.010;11.326;2023-11-19T14:52:17;0.98;;;0.70;;
21297;SDS011;10808;48.010;11.326;2023-11-19T14:54:43;1.10;;;0.80;;
21297;SDS011;10808;48.010;11.326;2023-11-19T14:57:09;1.30;;;1.13;;
21297;SDS011;10808;48.010;11.326;2023-11-19T14:59:37;0.98;;;0.80;;
21297;SDS011;10808;48.010;11.326;2023-11-19T15:02:04;0.82;;;0.82;;
21297;SDS011;10808;48.010;11.326;2023-11-19T15:04:31;1.30;;;1.00;;
21297;SDS011;10808;48.010;11.326;2023-11-19T15:06:59;1.30;;;0.90;;
21297;SDS011;10808;48.010;11.326;2023-11-19T15:09:26;1.17;;;0.80;;
21297;SDS011;10808;48.010;11.326;2023-11-19T15:11:55;1.77;;;1.10;;
21297;SDS011;10808;48.010;11.326;2023-11-19T15:14:23;2.28;;;1.20;;
21297;SDS011;10808;48.010;11.326;2023-11-19T15:16:49;0.80;;;0.80;;